createdAt,value
2019-03-01T00:00:45.966Z,6.75
2019-03-01T00:01:45.855Z,6.72
2019-03-01T00:02:45.860Z,6.70
2019-03-01T00:03:45.858Z,6.75
2019-03-01T00:04:45.862Z,6.70
2019-03-01T00:05:45.876Z,6.72
2019-03-01T00:06:45.900Z,6.84
2019-03-01T00:07:45.830Z,6.74
2019-03-01T00:08:45.770Z,6.74
2019-03-01T00:09:45.769Z,6.79
2019-03-01T00:10:45.781Z,6.69
2019-03-01T00:11:45.728Z,6.78
2019-03-01T00:12:45.842Z,6.79
2019-03-01T00:13:45.717Z,6.84
2019-03-01T00:14:45.723Z,6.85
2019-03-01T00:15:45.717Z,6.79
2019-03-01T00:16:45.696Z,6.88
2019-03-01T00:17:45.741Z,6.92
2019-03-01T00:18:45.662Z,6.89
2019-03-01T00:19:45.651Z,6.95
2019-03-01T00:20:45.639Z,6.96
2019-03-01T00:21:45.637Z,6.96
2019-03-01T00:22:45.633Z,6.93
2019-03-01T00:23:45.678Z,6.93
2019-03-01T00:24:45.609Z,6.95
2019-03-01T00:25:45.590Z,6.95
2019-03-01T00:26:45.597Z,6.89
2019-03-01T00:27:45.571Z,6.88
2019-03-01T00:28:45.574Z,6.89
2019-03-01T00:29:45.651Z,7.05
2019-03-01T00:30:45.541Z,7.05
2019-03-01T00:31:45.523Z,7.11
2019-03-01T00:32:45.510Z,7.17
2019-03-01T00:33:45.502Z,7.18
2019-03-01T00:34:45.482Z,7.18
2019-03-01T00:35:45.719Z,7.06
2019-03-01T00:36:45.465Z,7.20
2019-03-01T00:37:45.464Z,7.21
2019-03-01T00:38:45.546Z,7.24
2019-03-01T00:39:45.941Z,7.24
2019-03-01T00:40:45.485Z,7.21
2019-03-01T00:41:45.559Z,7.21
2019-03-01T00:42:45.425Z,7.18
2019-03-01T00:43:45.409Z,7.17
2019-03-01T00:44:47.801Z,7.15
2019-03-01T00:45:45.390Z,7.21
2019-03-01T00:46:45.407Z,7.18
2019-03-01T00:47:45.343Z,7.11
2019-03-01T00:48:45.333Z,7.17
2019-03-01T00:49:45.329Z,7.06
2019-03-01T00:51:00.054Z,7.07
2019-03-01T00:51:45.325Z,7.11
2019-03-01T00:52:45.380Z,6.97
2019-03-01T00:53:45.285Z,6.93
2019-03-01T00:54:45.275Z,6.95
2019-03-01T00:55:45.261Z,6.93
2019-03-01T00:56:45.272Z,6.96
2019-03-01T00:57:45.230Z,6.92
2019-03-01T00:58:45.326Z,6.93
2019-03-01T00:59:45.231Z,7.07
2019-03-01T01:00:45.319Z,7.03
2019-03-01T01:01:45.241Z,7.07
2019-03-01T01:02:45.182Z,7.14
2019-03-01T01:03:45.173Z,7.20
2019-03-01T01:04:45.275Z,7.10
2019-03-01T01:05:45.243Z,7.07
2019-03-01T01:06:45.148Z,7.06
2019-03-01T01:07:45.132Z,7.06
2019-03-01T01:08:45.227Z,7.13
2019-03-01T01:09:45.149Z,7.13
2019-03-01T01:10:45.108Z,7.03
2019-03-01T01:11:45.117Z,7.15
2019-03-01T01:12:45.068Z,7.18
2019-03-01T01:13:45.095Z,7.17
2019-03-01T01:14:45.186Z,7.17
2019-03-01T01:15:45.046Z,7.20
2019-03-01T01:16:45.033Z,7.17
2019-03-01T01:17:45.044Z,7.23
2019-03-01T01:18:45.010Z,7.15
2019-03-01T01:19:45.178Z,7.05
2019-03-01T01:20:44.989Z,7.21
2019-03-01T01:21:44.983Z,7.17
2019-03-01T01:22:44.980Z,7.21
2019-03-01T01:23:44.973Z,7.21
2019-03-01T01:24:44.955Z,7.18
2019-03-01T01:25:45.013Z,7.20
2019-03-01T01:26:45.007Z,7.18
2019-03-01T01:27:44.921Z,7.14
2019-03-01T01:28:44.912Z,7.15
2019-03-01T01:29:44.898Z,7.18
2019-03-01T01:30:44.931Z,7.15
2019-03-01T01:31:44.956Z,7.17
2019-03-01T01:32:44.870Z,7.15
2019-03-01T01:33:44.854Z,7.10
2019-03-01T01:34:44.855Z,7.15
2019-03-01T01:35:44.825Z,7.06
2019-03-01T01:36:44.815Z,7.07
2019-03-01T01:37:44.882Z,7.02
2019-03-01T01:38:44.832Z,7.00
2019-03-01T01:39:44.787Z,7.05
2019-03-01T01:40:44.783Z,6.96
2019-03-01T01:41:44.765Z,6.95
2019-03-01T01:42:44.748Z,7.10
2019-03-01T01:43:44.834Z,6.96
2019-03-01T01:44:44.735Z,7.02
2019-03-01T01:45:44.718Z,7.02
2019-03-01T01:46:44.700Z,6.99
2019-03-01T01:47:44.764Z,6.93
2019-03-01T01:48:44.685Z,6.93
2019-03-01T01:49:44.820Z,6.96
2019-03-01T01:50:44.674Z,7.00
2019-03-01T01:52:08.575Z,6.96
2019-03-01T01:52:44.638Z,6.88
2019-03-01T01:53:44.673Z,6.81
2019-03-01T01:54:44.644Z,6.72
2019-03-01T01:55:44.619Z,6.70
2019-03-01T01:56:44.605Z,6.67
2019-03-01T01:57:44.610Z,6.74
2019-03-01T01:58:44.576Z,6.54
2019-03-01T01:59:44.704Z,6.52
2019-03-01T02:00:44.583Z,6.44
2019-03-01T02:01:44.547Z,6.38
2019-03-01T02:02:44.531Z,6.38
2019-03-01T02:03:44.591Z,6.27
2019-03-01T02:04:44.532Z,6.22
2019-03-01T02:05:44.976Z,6.17
2019-03-01T02:06:44.549Z,6.09
2019-03-01T02:07:44.472Z,6.01
2019-03-01T02:08:44.471Z,6.16
2019-03-01T02:09:44.469Z,6.14
2019-03-01T02:10:44.444Z,6.20
2019-03-01T02:11:44.504Z,6.08
2019-03-01T02:12:44.448Z,6.07
2019-03-01T02:13:44.437Z,6.04
2019-03-01T02:14:44.413Z,5.99
2019-03-01T02:15:44.418Z,5.98
2019-03-01T02:16:44.388Z,5.91
2019-03-01T02:17:44.460Z,5.87
2019-03-01T02:18:44.366Z,5.86
2019-03-01T02:19:44.382Z,5.86
2019-03-01T02:20:44.336Z,5.91
2019-03-01T02:21:44.347Z,5.89
2019-03-01T02:22:44.319Z,5.93
2019-03-01T02:23:44.377Z,5.80
2019-03-01T02:24:44.374Z,5.91
2019-03-01T02:25:44.290Z,5.87
2019-03-01T02:26:44.288Z,5.94
2019-03-01T02:27:44.281Z,5.93
2019-03-01T02:28:44.395Z,5.93
2019-03-01T02:29:44.244Z,6.02
2019-03-01T02:30:44.300Z,5.97
2019-03-01T02:31:44.216Z,5.89
2019-03-01T02:32:44.387Z,6.01
2019-03-01T02:33:44.216Z,6.05
2019-03-01T02:34:44.196Z,6.14
2019-03-01T02:35:44.183Z,6.09
2019-03-01T02:36:44.200Z,6.07
2019-03-01T02:37:44.208Z,6.07
2019-03-01T02:38:44.152Z,5.98
2019-03-01T02:39:44.134Z,6.02
2019-03-01T02:40:44.120Z,5.99
2019-03-01T02:41:44.117Z,5.98
2019-03-01T02:42:44.096Z,5.91
2019-03-01T02:43:44.191Z,5.90
2019-03-01T02:44:44.077Z,5.87
2019-03-01T02:45:44.057Z,5.86
2019-03-01T02:46:44.055Z,5.84
2019-03-01T02:47:44.052Z,5.84
2019-03-01T02:48:44.038Z,5.79
2019-03-01T02:49:44.151Z,5.83
2019-03-01T02:50:44.007Z,5.76
2019-03-01T02:51:43.990Z,5.80
2019-03-01T02:52:43.994Z,5.73
2019-03-01T02:53:44.022Z,5.75
2019-03-01T02:54:43.969Z,5.75
2019-03-01T02:55:44.103Z,5.73
2019-03-01T02:56:43.965Z,5.83
2019-03-01T02:57:43.942Z,5.66
2019-03-01T02:58:43.927Z,5.71
2019-03-01T02:59:43.931Z,5.71
2019-03-01T03:00:43.900Z,5.79
2019-03-01T03:01:44.009Z,5.84
2019-03-01T03:02:43.903Z,5.90
2019-03-01T03:03:43.859Z,5.91
2019-03-01T03:04:43.860Z,5.93
2019-03-01T03:05:43.846Z,6.01
2019-03-01T03:06:43.838Z,5.98
2019-03-01T03:07:43.931Z,5.97
2019-03-01T03:08:43.847Z,6.11
2019-03-01T03:09:43.843Z,6.04
2019-03-01T03:10:43.953Z,6.11
2019-03-01T03:11:43.775Z,6.19
2019-03-01T03:12:43.843Z,6.20
2019-03-01T03:13:43.875Z,6.30
2019-03-01T03:14:43.753Z,6.28
2019-03-01T03:15:43.734Z,6.35
2019-03-01T03:16:43.749Z,6.31
2019-03-01T03:17:43.713Z,6.38
2019-03-01T03:18:43.766Z,6.35
2019-03-01T03:19:43.708Z,6.42
2019-03-01T03:20:43.749Z,6.46
2019-03-01T03:21:43.694Z,6.46
2019-03-01T03:22:46.585Z,6.39
2019-03-01T03:23:43.664Z,6.39
2019-03-01T03:24:43.641Z,6.44
2019-03-01T03:25:43.648Z,6.48
2019-03-01T03:26:43.696Z,6.41
2019-03-01T03:27:43.722Z,6.51
2019-03-01T03:28:43.593Z,6.49
2019-03-01T03:29:43.584Z,6.59
2019-03-01T03:30:43.579Z,6.64
2019-03-01T03:31:43.568Z,6.57
2019-03-01T03:32:43.768Z,6.48
2019-03-01T03:33:43.550Z,6.49
2019-03-01T03:34:43.539Z,6.49
2019-03-01T03:35:43.516Z,6.52
2019-03-01T03:36:43.511Z,6.49
2019-03-01T03:37:43.583Z,6.64
2019-03-01T03:38:43.479Z,6.52
2019-03-01T03:39:43.482Z,6.63
2019-03-01T03:40:43.548Z,6.60
2019-03-01T03:41:43.465Z,6.72
2019-03-01T03:42:43.470Z,6.70
2019-03-01T03:43:43.433Z,6.70
2019-03-01T03:44:43.459Z,6.70
2019-03-01T03:45:43.401Z,6.77
2019-03-01T03:46:43.504Z,6.74
2019-03-01T03:47:43.458Z,6.66
2019-03-01T03:48:43.383Z,6.70
2019-03-01T03:49:43.401Z,6.67
2019-03-01T03:50:43.364Z,6.70
2019-03-01T03:51:43.461Z,6.72
2019-03-01T03:52:43.351Z,6.66
2019-03-01T03:53:43.348Z,6.70
2019-03-01T03:54:43.305Z,6.72
2019-03-01T03:55:43.298Z,6.72
2019-03-01T03:56:43.288Z,6.78
2019-03-01T03:57:43.353Z,6.78
2019-03-01T03:58:43.315Z,6.72
2019-03-01T03:59:43.283Z,6.75
2019-03-01T04:00:43.245Z,6.72
2019-03-01T04:01:43.242Z,6.79
2019-03-01T04:02:43.217Z,6.84
2019-03-01T04:03:43.283Z,6.84
2019-03-01T04:04:43.207Z,6.82
2019-03-01T04:05:43.211Z,6.79
2019-03-01T04:06:43.197Z,6.82
2019-03-01T04:07:43.165Z,6.81
2019-03-01T04:08:43.315Z,6.85
2019-03-01T04:09:43.149Z,6.81
2019-03-01T04:10:43.144Z,6.85
2019-03-01T04:11:43.148Z,6.82
2019-03-01T04:12:43.114Z,6.82
2019-03-01T04:13:43.115Z,6.87
2019-03-01T04:14:43.200Z,6.87
2019-03-01T04:15:43.079Z,6.85
2019-03-01T04:16:43.070Z,6.77
2019-03-01T04:17:43.066Z,6.84
2019-03-01T04:18:43.046Z,6.87
2019-03-01T04:19:43.181Z,6.87
2019-03-01T04:20:43.350Z,6.85
2019-03-01T04:21:43.034Z,6.88
2019-03-01T04:22:43.025Z,6.84
2019-03-01T04:23:42.992Z,6.84
2019-03-01T04:24:42.993Z,6.87
2019-03-01T04:25:43.050Z,6.85
2019-03-01T04:26:42.959Z,6.88
2019-03-01T04:27:42.942Z,6.87
2019-03-01T04:28:42.947Z,6.81
2019-03-01T04:29:42.929Z,6.85
2019-03-01T04:30:42.921Z,6.87
2019-03-01T04:31:43.022Z,6.84
2019-03-01T04:32:42.907Z,6.87
2019-03-01T04:33:43.015Z,6.78
2019-03-01T04:34:42.887Z,6.84
2019-03-01T04:35:42.858Z,6.85
2019-03-01T04:36:42.856Z,6.87
2019-03-01T04:37:42.841Z,6.75
2019-03-01T04:38:43.465Z,6.89
2019-03-01T04:39:42.814Z,6.72
2019-03-01T04:40:42.809Z,6.87
2019-03-01T04:41:42.803Z,6.75
2019-03-01T04:42:42.859Z,6.75
2019-03-01T04:43:42.782Z,6.75
2019-03-01T04:44:42.870Z,6.70
2019-03-01T04:45:42.758Z,6.72
2019-03-01T04:46:42.737Z,6.75
2019-03-01T04:47:42.727Z,6.70
2019-03-01T04:48:42.866Z,6.87
2019-03-01T04:49:42.721Z,6.82
2019-03-01T04:50:42.711Z,6.81
2019-03-01T04:51:42.682Z,6.84
2019-03-01T04:52:42.671Z,6.84
2019-03-01T04:53:42.673Z,6.88
2019-03-01T04:54:42.772Z,6.74
2019-03-01T04:55:42.660Z,6.74
2019-03-01T04:56:42.628Z,6.67
2019-03-01T04:57:42.619Z,6.67
2019-03-01T04:58:42.612Z,6.64
2019-03-01T04:59:42.708Z,6.67
2019-03-01T05:00:42.715Z,6.59
2019-03-01T05:01:42.591Z,6.59
2019-03-01T05:02:42.562Z,6.51
2019-03-01T05:03:42.554Z,6.52
2019-03-01T05:04:42.569Z,6.42
2019-03-01T05:05:42.717Z,6.44
2019-03-01T05:06:42.527Z,6.48
2019-03-01T05:07:42.528Z,6.44
2019-03-01T05:08:42.493Z,6.44
2019-03-01T05:09:42.487Z,6.44
2019-03-01T05:10:42.487Z,6.42
2019-03-01T05:11:42.545Z,6.44
2019-03-01T05:12:42.447Z,6.42
2019-03-01T05:13:42.479Z,6.39
2019-03-01T05:14:42.432Z,6.39
2019-03-01T05:15:42.439Z,6.36
2019-03-01T05:16:42.698Z,6.39
2019-03-01T05:17:42.411Z,6.46
2019-03-01T05:18:42.392Z,6.45
2019-03-01T05:19:42.372Z,6.51
2019-03-01T05:20:42.382Z,6.48
2019-03-01T05:21:42.431Z,6.45
2019-03-01T05:22:42.378Z,6.44
2019-03-01T05:23:42.392Z,6.59
2019-03-01T05:24:42.324Z,6.42
2019-03-01T05:25:42.309Z,6.35
2019-03-01T05:26:42.300Z,6.42
2019-03-01T05:27:42.288Z,6.46
2019-03-01T05:28:42.307Z,6.48
2019-03-01T05:29:42.340Z,6.45
2019-03-01T05:30:42.349Z,6.45
2019-03-01T05:31:42.259Z,6.39
2019-03-01T05:32:42.237Z,6.46
2019-03-01T05:33:42.242Z,6.45
2019-03-01T05:34:42.222Z,6.45
2019-03-01T05:35:42.285Z,6.49
2019-03-01T05:36:42.252Z,6.54
2019-03-01T05:37:42.175Z,6.36
2019-03-01T05:38:42.173Z,6.30
2019-03-01T05:39:42.165Z,6.31
2019-03-01T05:40:42.164Z,6.36
2019-03-01T05:41:42.151Z,6.42
2019-03-01T05:42:42.204Z,6.39
2019-03-01T05:43:42.215Z,6.44
2019-03-01T05:44:42.110Z,6.48
2019-03-01T05:45:42.094Z,6.42
2019-03-01T05:46:42.085Z,6.45
2019-03-01T05:47:42.075Z,6.44
2019-03-01T05:48:42.070Z,6.42
2019-03-01T05:49:42.170Z,6.45
2019-03-01T05:50:42.034Z,6.42
2019-03-01T05:51:42.025Z,6.45
2019-03-01T05:52:42.051Z,6.42
2019-03-01T05:53:42.014Z,6.39
2019-03-01T05:54:42.047Z,6.39
2019-03-01T05:55:42.170Z,6.44
2019-03-01T05:56:42.182Z,6.49
2019-03-01T05:57:41.973Z,6.49
2019-03-01T05:58:41.948Z,6.54
2019-03-01T05:59:41.944Z,6.52
2019-03-01T06:00:42.039Z,6.64
2019-03-01T06:01:42.249Z,6.69
2019-03-01T06:02:42.857Z,6.72
2019-03-01T06:03:41.905Z,6.72
2019-03-01T06:04:41.887Z,6.72
2019-03-01T06:05:41.879Z,6.77
2019-03-01T06:06:41.984Z,6.79
2019-03-01T06:07:41.864Z,6.75
2019-03-01T06:08:41.854Z,6.85
2019-03-01T06:09:41.860Z,6.78
2019-03-01T06:10:41.857Z,6.87
2019-03-01T06:11:42.055Z,6.81
2019-03-01T06:12:41.836Z,6.87
2019-03-01T06:13:41.797Z,6.87
2019-03-01T06:14:41.780Z,6.74
2019-03-01T06:15:41.827Z,6.66
2019-03-01T06:16:41.923Z,6.64
2019-03-01T06:17:41.737Z,6.51
2019-03-01T06:18:41.730Z,6.63
2019-03-01T06:19:41.718Z,6.66
2019-03-01T06:20:41.777Z,6.72
2019-03-01T06:21:41.711Z,6.72
2019-03-01T06:22:41.768Z,6.67
2019-03-01T06:23:41.687Z,6.72
2019-03-01T06:24:41.741Z,6.82
2019-03-01T06:25:41.650Z,6.74
2019-03-01T06:26:41.641Z,6.81
2019-03-01T06:27:41.631Z,6.74
2019-03-01T06:28:41.651Z,6.87
2019-03-01T06:29:41.619Z,6.84
2019-03-01T06:30:41.884Z,6.79
2019-03-01T06:31:41.591Z,6.81
2019-03-01T06:32:42.288Z,6.88
2019-03-01T06:33:41.569Z,6.87
2019-03-01T06:34:41.555Z,6.81
2019-03-01T06:35:41.557Z,6.79
2019-03-01T06:36:41.628Z,6.87
2019-03-01T06:37:41.531Z,6.82
2019-03-01T06:38:41.523Z,6.84
2019-03-01T06:39:41.508Z,6.85
2019-03-01T06:40:41.529Z,6.96
2019-03-01T06:41:41.519Z,6.87
2019-03-01T06:42:41.553Z,6.88
2019-03-01T06:43:41.473Z,6.95
2019-03-01T06:44:41.470Z,6.92
2019-03-01T06:45:41.438Z,6.87
2019-03-01T06:46:41.437Z,6.95
2019-03-01T06:47:41.553Z,6.88
2019-03-01T06:48:41.405Z,6.95
2019-03-01T06:49:41.394Z,6.93
2019-03-01T06:50:41.390Z,6.93
2019-03-01T06:51:41.417Z,7.05
2019-03-01T06:52:41.370Z,7.02
2019-03-01T06:53:41.432Z,7.00
2019-03-01T06:54:41.336Z,7.05
2019-03-01T06:55:41.341Z,7.07
2019-03-01T06:56:41.320Z,7.15
2019-03-01T06:57:41.394Z,7.11
2019-03-01T06:58:41.303Z,7.10
2019-03-01T06:59:41.296Z,7.18
2019-03-01T07:00:49.880Z,7.21
2019-03-01T07:01:42.267Z,7.18
2019-03-01T07:02:41.257Z,7.18
2019-03-01T07:03:41.357Z,7.21
2019-03-01T07:04:41.271Z,7.25
2019-03-01T07:05:41.249Z,7.17
2019-03-01T07:06:41.212Z,7.23
2019-03-01T07:07:41.192Z,7.20
2019-03-01T07:08:41.204Z,7.28
2019-03-01T07:09:42.519Z,7.28
2019-03-01T07:10:41.167Z,7.32
2019-03-01T07:11:41.164Z,7.32
2019-03-01T07:12:41.149Z,7.24
2019-03-01T07:13:41.135Z,7.29
2019-03-01T07:14:41.250Z,7.35
2019-03-01T07:15:41.248Z,7.36
2019-03-01T07:16:41.102Z,7.28
2019-03-01T07:17:41.170Z,7.21
2019-03-01T07:18:41.087Z,7.21
2019-03-01T07:19:41.161Z,7.11
2019-03-01T07:20:41.123Z,7.06
2019-03-01T07:21:41.037Z,7.06
2019-03-01T07:22:41.045Z,6.88
2019-03-01T07:23:55.678Z,6.82
2019-03-01T07:24:41.023Z,6.84
2019-03-01T07:25:42.498Z,6.77
2019-03-01T07:26:40.999Z,6.66
2019-03-01T07:27:40.989Z,6.74
2019-03-01T07:28:40.979Z,6.74
2019-03-01T07:29:40.961Z,6.72
2019-03-01T07:30:40.998Z,6.75
2019-03-01T07:31:40.947Z,6.72
2019-03-01T07:32:40.936Z,6.67
2019-03-01T07:33:40.989Z,6.72
2019-03-01T07:34:40.946Z,6.79
2019-03-01T07:35:40.890Z,6.77
2019-03-01T07:36:40.999Z,6.77
2019-03-01T07:37:40.870Z,6.88
2019-03-01T07:38:40.866Z,6.84
2019-03-01T07:39:40.843Z,6.89
2019-03-01T07:40:40.923Z,6.93
2019-03-01T07:41:40.845Z,6.85
2019-03-01T07:42:40.812Z,6.84
2019-03-01T07:43:40.820Z,6.92
2019-03-01T07:44:40.798Z,6.92
2019-03-01T07:45:40.814Z,6.88
2019-03-01T07:46:40.862Z,6.93
2019-03-01T07:47:40.759Z,6.92
2019-03-01T07:48:40.750Z,6.89
2019-03-01T07:49:40.750Z,6.97
2019-03-01T07:50:40.759Z,6.93
2019-03-01T07:51:40.731Z,6.92
2019-03-01T07:52:40.813Z,6.96
2019-03-01T07:53:42.055Z,6.97
2019-03-01T07:54:40.715Z,7.00
2019-03-01T07:55:40.677Z,6.93
2019-03-01T07:56:40.842Z,6.93
2019-03-01T07:57:40.756Z,6.92
2019-03-01T07:58:40.637Z,6.88
2019-03-01T07:59:40.647Z,6.88
2019-03-01T08:00:40.651Z,6.89
2019-03-01T08:01:40.938Z,6.85
2019-03-01T08:02:40.866Z,6.92
2019-03-01T08:03:40.617Z,6.88
2019-03-01T08:04:40.571Z,6.93
2019-03-01T08:05:40.584Z,6.99
2019-03-01T08:06:40.587Z,7.03
2019-03-01T08:07:40.549Z,6.96
2019-03-01T08:08:40.698Z,6.95
2019-03-01T08:09:41.372Z,6.93
2019-03-01T08:10:40.521Z,6.93
2019-03-01T08:11:40.518Z,7.02
2019-03-01T08:12:42.560Z,7.06
2019-03-01T08:13:40.558Z,7.02
2019-03-01T08:14:40.473Z,6.97
2019-03-01T08:15:40.784Z,7.13
2019-03-01T08:16:40.447Z,7.11
2019-03-01T08:17:40.437Z,7.18
2019-03-01T08:18:44.269Z,7.17
2019-03-01T08:19:40.490Z,7.20
2019-03-01T08:20:40.518Z,7.13
2019-03-01T08:21:42.660Z,7.15
2019-03-01T08:22:48.493Z,7.25
2019-03-01T08:23:41.376Z,7.28
2019-03-01T08:24:42.886Z,7.31
2019-03-01T08:25:41.426Z,7.18
2019-03-01T08:26:40.338Z,7.32
2019-03-01T08:27:42.064Z,7.31
2019-03-01T08:28:41.336Z,7.29
2019-03-01T08:29:40.608Z,7.40
2019-03-01T08:30:42.495Z,7.35
2019-03-01T08:31:41.352Z,7.35
2019-03-01T08:32:40.336Z,7.40
2019-03-01T08:33:43.369Z,7.38
2019-03-01T08:34:40.255Z,7.40
2019-03-01T08:35:40.231Z,7.50
2019-03-01T08:36:42.571Z,7.42
2019-03-01T08:37:40.222Z,7.51
2019-03-01T08:38:40.284Z,7.57
2019-03-01T08:39:40.742Z,7.54
2019-03-01T08:40:40.330Z,7.53
2019-03-01T08:41:40.175Z,7.54
2019-03-01T08:42:40.157Z,7.66
2019-03-01T08:43:40.155Z,7.57
2019-03-01T08:44:40.145Z,7.51
2019-03-01T08:45:40.134Z,7.48
2019-03-01T08:46:42.042Z,7.32
2019-03-01T08:47:41.114Z,7.36
2019-03-01T08:48:40.090Z,7.23
2019-03-01T08:49:40.092Z,7.33
2019-03-01T08:50:40.237Z,7.28
2019-03-01T08:51:40.076Z,7.35
2019-03-01T08:52:40.457Z,7.38
2019-03-01T08:53:40.035Z,7.43
2019-03-01T08:54:40.038Z,7.56
2019-03-01T08:55:40.013Z,7.47
2019-03-01T08:56:40.109Z,7.48
2019-03-01T08:57:44.182Z,7.54
2019-03-01T08:58:41.542Z,7.63
2019-03-01T08:59:39.978Z,7.60
2019-03-01T09:00:39.959Z,7.57
2019-03-01T09:01:41.809Z,7.56
2019-03-01T09:02:41.040Z,7.50
2019-03-01T09:03:41.603Z,7.47
2019-03-01T09:04:39.930Z,7.50
2019-03-01T09:05:39.915Z,7.51
2019-03-01T09:06:41.629Z,7.48
2019-03-01T09:07:39.884Z,7.50
2019-03-01T09:08:43.028Z,7.45
2019-03-01T09:09:40.946Z,7.54
2019-03-01T09:10:39.965Z,7.45
2019-03-01T09:11:41.748Z,7.48
2019-03-01T09:12:40.696Z,7.43
2019-03-01T09:13:39.846Z,7.43
2019-03-01T09:14:40.038Z,7.42
2019-03-01T09:15:39.913Z,7.47
2019-03-01T09:16:41.067Z,7.47
2019-03-01T09:17:39.777Z,7.47
2019-03-01T09:18:39.760Z,7.56
2019-03-01T09:19:39.755Z,7.51
2019-03-01T09:20:39.727Z,7.57
2019-03-01T09:21:39.851Z,7.60
2019-03-01T09:22:39.724Z,7.60
2019-03-01T09:23:39.789Z,7.66
2019-03-01T09:24:46.678Z,7.66
2019-03-01T09:25:41.387Z,7.67
2019-03-01T09:26:39.666Z,7.53
2019-03-01T09:27:39.745Z,7.42
2019-03-01T09:28:39.940Z,7.51
2019-03-01T09:29:41.922Z,7.38
2019-03-01T09:30:40.345Z,7.35
2019-03-01T09:31:39.608Z,7.35
2019-03-01T09:32:39.701Z,7.38
2019-03-01T09:33:39.598Z,7.36
2019-03-01T09:34:39.580Z,7.33
2019-03-01T09:35:42.770Z,7.31
2019-03-01T09:36:39.558Z,7.36
2019-03-01T09:37:39.550Z,7.32
2019-03-01T09:38:42.841Z,7.39
2019-03-01T09:39:39.521Z,7.47
2019-03-01T09:40:40.184Z,7.45
2019-03-01T09:41:40.411Z,7.48
2019-03-01T09:42:39.491Z,7.48
2019-03-01T09:43:39.473Z,7.47
2019-03-01T09:44:39.541Z,7.51
2019-03-01T09:45:39.564Z,7.48
2019-03-01T09:46:39.476Z,7.58
2019-03-01T09:47:39.436Z,7.48
2019-03-01T09:48:39.442Z,7.48
2019-03-01T09:49:39.421Z,7.54
2019-03-01T09:50:39.410Z,7.48
2019-03-01T09:51:39.473Z,7.43
2019-03-01T09:52:39.386Z,7.54
2019-03-01T09:53:39.365Z,7.58
2019-03-01T09:54:39.373Z,7.66
2019-03-01T09:55:39.451Z,7.66
2019-03-01T09:56:39.337Z,7.63
2019-03-01T09:57:39.392Z,7.72
2019-03-01T09:58:39.322Z,7.60
2019-03-01T09:59:39.315Z,7.56
2019-03-01T10:00:39.296Z,7.51
2019-03-01T10:01:39.659Z,7.51
2019-03-01T10:02:39.268Z,7.45
2019-03-01T10:03:39.388Z,7.32
2019-03-01T10:04:39.259Z,7.42
2019-03-01T10:05:39.241Z,7.38
2019-03-01T10:06:39.341Z,7.48
2019-03-01T10:07:39.221Z,7.57
2019-03-01T10:08:39.227Z,7.57
2019-03-01T10:09:39.197Z,7.58
2019-03-01T10:10:39.222Z,7.75
2019-03-01T10:11:39.175Z,7.80
2019-03-01T10:12:39.285Z,7.80
2019-03-01T10:13:39.160Z,7.85
2019-03-01T10:14:39.261Z,7.94
2019-03-01T10:15:39.120Z,7.87
2019-03-01T10:16:39.117Z,7.94
2019-03-01T10:17:39.097Z,7.95
2019-03-01T10:18:39.094Z,7.97
2019-03-01T10:19:39.229Z,7.98
2019-03-01T10:20:39.066Z,8.00
2019-03-01T10:21:39.214Z,7.97
2019-03-01T10:22:39.253Z,7.95
2019-03-01T10:23:39.047Z,8.03
2019-03-01T10:24:39.055Z,7.85
2019-03-01T10:25:39.044Z,7.83
2019-03-01T10:26:39.013Z,7.90
2019-03-01T10:27:38.992Z,7.88
2019-03-01T10:28:39.079Z,7.87
2019-03-01T10:29:38.963Z,7.88
2019-03-01T10:30:38.965Z,7.83
2019-03-01T10:31:38.978Z,7.87
2019-03-01T10:32:39.122Z,7.90
2019-03-01T10:33:39.051Z,7.91
2019-03-01T10:34:38.915Z,7.88
2019-03-01T10:35:38.909Z,8.05
2019-03-01T10:36:38.890Z,8.00
2019-03-01T10:37:38.900Z,7.97
2019-03-01T10:38:38.861Z,8.09
2019-03-01T10:39:38.971Z,8.03
2019-03-01T10:40:38.846Z,7.95
2019-03-01T10:41:38.835Z,8.12
2019-03-01T10:42:38.831Z,8.00
2019-03-01T10:43:38.844Z,8.01
2019-03-01T10:44:38.797Z,7.97
2019-03-01T10:45:38.866Z,7.91
2019-03-01T10:46:38.777Z,7.88
2019-03-01T10:47:38.799Z,7.80
2019-03-01T10:48:38.773Z,7.88
2019-03-01T10:49:38.741Z,7.90
2019-03-01T10:50:38.821Z,7.94
2019-03-01T10:51:38.722Z,7.83
2019-03-01T10:52:38.787Z,7.85
2019-03-01T10:53:38.717Z,7.90
2019-03-01T10:54:38.694Z,7.90
2019-03-01T10:55:38.689Z,7.91
2019-03-01T10:56:38.783Z,7.90
2019-03-01T10:57:38.665Z,7.87
2019-03-01T10:58:38.649Z,7.70
2019-03-01T10:59:38.663Z,7.69
2019-03-01T11:00:38.755Z,7.66
2019-03-01T11:01:38.646Z,7.54
2019-03-01T11:02:38.611Z,7.39
2019-03-01T11:03:38.588Z,7.32
2019-03-01T11:04:38.582Z,7.33
2019-03-01T11:05:38.574Z,7.29
2019-03-01T11:06:38.632Z,7.25
2019-03-01T11:07:38.557Z,7.24
2019-03-01T11:08:38.624Z,7.23
2019-03-01T11:09:38.563Z,7.21
2019-03-01T11:10:38.547Z,7.25
2019-03-01T11:11:38.515Z,7.32
2019-03-01T11:12:38.496Z,7.36
2019-03-01T11:13:38.660Z,7.39
2019-03-01T11:14:38.470Z,7.51
2019-03-01T11:15:38.460Z,7.40
2019-03-01T11:16:38.448Z,7.48
2019-03-01T11:17:38.456Z,7.40
2019-03-01T11:18:38.433Z,7.39
2019-03-01T11:19:38.522Z,7.45
2019-03-01T11:20:38.405Z,7.45
2019-03-01T11:21:38.389Z,7.43
2019-03-01T11:22:38.494Z,7.39
2019-03-01T11:23:38.384Z,7.51
2019-03-01T11:24:38.361Z,7.50
2019-03-01T11:25:38.397Z,7.42
2019-03-01T11:26:38.345Z,7.35
2019-03-01T11:27:38.341Z,7.35
2019-03-01T11:28:38.439Z,7.39
2019-03-01T11:29:38.303Z,7.45
2019-03-01T11:30:38.292Z,7.50
2019-03-01T11:31:38.281Z,7.48
2019-03-01T11:32:38.290Z,7.53
2019-03-01T11:33:38.256Z,7.53
2019-03-01T11:34:38.340Z,7.45
2019-03-01T11:35:38.235Z,7.50
2019-03-01T11:36:38.242Z,7.51
2019-03-01T11:37:38.217Z,7.48
2019-03-01T11:38:38.208Z,7.36
2019-03-01T11:39:38.203Z,7.40
2019-03-01T11:40:38.278Z,7.47
2019-03-01T11:41:38.209Z,7.51
2019-03-01T11:42:38.176Z,7.39
2019-03-01T11:43:38.151Z,7.43
2019-03-01T11:44:38.131Z,7.48
2019-03-01T11:45:38.139Z,7.57
2019-03-01T11:46:38.249Z,7.57
2019-03-01T11:47:38.267Z,7.66
2019-03-01T11:48:38.102Z,7.73
2019-03-01T11:49:38.090Z,7.70
2019-03-01T11:50:38.080Z,7.69
2019-03-01T11:51:38.068Z,7.73
2019-03-01T11:52:38.100Z,7.70
2019-03-01T11:53:38.051Z,7.85
2019-03-01T11:54:38.038Z,7.88
2019-03-01T11:55:38.013Z,7.90
2019-03-01T11:56:37.998Z,7.87
2019-03-01T11:57:37.996Z,7.90
2019-03-01T11:58:38.129Z,8.01
2019-03-01T11:59:37.972Z,7.90
2019-03-01T12:00:37.972Z,8.00
2019-03-01T12:01:37.947Z,7.88
2019-03-01T12:02:37.938Z,7.91
2019-03-01T12:03:38.040Z,7.83
2019-03-01T12:09:03.792Z,7.83
2019-03-01T12:09:33.924Z,7.76
2019-03-01T12:10:33.946Z,7.73
2019-03-01T12:11:33.901Z,7.72
2019-03-01T12:12:33.938Z,7.57
2019-03-01T12:13:33.891Z,7.54
2019-03-01T12:14:33.984Z,7.60
2019-03-01T12:15:33.866Z,7.54
2019-03-01T12:16:33.881Z,7.56
2019-03-01T12:17:33.836Z,7.54
2019-03-01T12:18:33.820Z,7.54
2019-03-01T12:19:33.811Z,7.48
2019-03-01T12:20:33.811Z,7.51
2019-03-01T12:21:33.794Z,7.51
2019-03-01T12:22:33.789Z,7.43
2019-03-01T12:23:33.765Z,7.38
2019-03-01T12:24:33.757Z,7.53
2019-03-01T12:25:33.744Z,7.43
2019-03-01T12:26:33.774Z,7.40
2019-03-01T12:27:33.737Z,7.38
2019-03-01T12:28:33.726Z,7.35
2019-03-01T12:29:33.760Z,7.35
2019-03-01T12:30:33.690Z,7.33
2019-03-01T12:31:33.675Z,7.35
2019-03-01T12:32:33.665Z,7.29
2019-03-01T12:33:33.655Z,7.35
2019-03-01T12:34:33.646Z,7.32
2019-03-01T12:35:33.652Z,7.36
2019-03-01T12:36:33.621Z,7.35
2019-03-01T12:37:33.618Z,7.42
2019-03-01T12:38:33.598Z,7.35
2019-03-01T12:39:33.606Z,7.32
2019-03-01T12:40:33.587Z,7.25
2019-03-01T12:41:33.588Z,7.21
2019-03-01T12:42:33.553Z,7.28
2019-03-01T12:43:33.542Z,7.18
2019-03-01T12:44:33.565Z,7.17
2019-03-01T12:45:33.536Z,7.17
2019-03-01T12:46:33.524Z,7.18
2019-03-01T12:47:33.495Z,7.23
2019-03-01T12:48:33.493Z,7.06
2019-03-01T12:49:33.504Z,7.11
2019-03-01T12:50:33.508Z,7.17
2019-03-01T12:51:33.465Z,7.21
2019-03-01T12:52:33.452Z,7.18
2019-03-01T12:53:33.439Z,7.24
2019-03-01T12:54:33.433Z,7.06
2019-03-01T12:55:33.411Z,7.06
2019-03-01T12:56:33.395Z,6.95
2019-03-01T12:57:33.402Z,6.84
2019-03-01T12:58:33.377Z,6.92
2019-03-01T12:59:33.373Z,6.96
2019-03-01T13:00:33.354Z,7.00
2019-03-01T13:01:33.342Z,6.97
2019-03-01T13:02:33.361Z,7.07
2019-03-01T13:03:33.345Z,7.06
2019-03-01T13:04:33.317Z,7.11
2019-03-01T13:05:33.303Z,7.05
2019-03-01T13:06:35.409Z,7.14
2019-03-01T13:07:34.290Z,7.17
2019-03-01T13:08:33.270Z,7.21
2019-03-01T13:09:33.271Z,7.17
2019-03-01T13:10:33.245Z,7.11
2019-03-01T13:11:33.234Z,7.02
2019-03-01T13:12:33.249Z,7.10
2019-03-01T13:13:34.606Z,7.03
2019-03-01T13:14:33.199Z,6.93
2019-03-01T13:15:33.245Z,6.93
2019-03-01T13:16:33.177Z,7.06
2019-03-01T13:17:33.717Z,7.05
2019-03-01T13:18:33.158Z,6.95
2019-03-01T13:19:33.146Z,6.96
2019-03-01T13:20:33.852Z,6.79
2019-03-01T13:21:33.137Z,6.82
2019-03-01T13:22:33.117Z,6.87